Latest Coastal Weather Observations for Strahan

IDT60701

Issued at 2:35 pm EST Monday 21 April 2014 (issued every 10 minutes, with the page automatically refreshed every 10 minutes)

About coastal observations | Map of coastal stations | Coastal observations for TAS | Marine services | Other Formats
Station Details ID: 097072 Name: STRAHAN AERODROME Lat: -42.16 Lon: 145.29 Height: 21.0 m
Data from the previous 72 hours. | See also: Recent months at Strahan
Date/Time
EST
Temp

°C
Wind Pressure Rain
since 9am
mm
Weather Cloud Vis
km
Sea
Height
m
Swell
Dir
 
Speed
knots
Gust
knots
hPa Trend Height
m
Period
s
Dir
21/02:30pm 12.0 ENE 4 7 1012.4 - 0.0 - Cloudy 10 - - - -
21/02:00pm 11.9 NE 8 13 1012.7 - 0.0 - Cloudy 10 - - - -
21/01:30pm 11.9 NNE 8 14 1013.3 - 0.0 - Cloudy 10 - - - -
21/01:00pm 11.6 NNE 6 10 1014.0 - 0.0 - Partly cloudy 10 - - - -
21/12:30pm 11.0 NNE 6 10 1014.7 - 0.0 - Cloudy 10 - - - -
21/12:00pm 10.9 ENE 4 6 1015.5 - 0.0 - Cloudy 10 - - - -
21/11:30am 10.9 NE 5 8 1016.0 - 0.0 - Cloudy 10 - - - -
21/11:00am 11.2 ENE 4 6 1016.2 - 0.0 - Cloudy 10 - - - -
21/10:30am 10.9 NE 4 6 1016.6 - 0.0 - - 10 - - - -
21/10:00am 10.8 ENE 4 7 1016.9 - 0.0 - - 10 - - - -
21/09:30am 10.5 SE 5 7 1017.3 - 0.0 - - 10 - - - -
21/09:00am 9.1 E 4 5 1017.4 - 6.2 - - 10 - - - -
21/08:30am 7.6 ENE 2 3 1017.7 - 6.2 - - 10 - - - -
21/08:00am 6.2 NE 4 5 1017.8 - 6.2 - - 10 - - - -
21/07:30am 5.5 ENE 5 7 1017.5 - 6.2 - - 10 - - - -
21/07:00am 5.0 NE 4 7 1017.7 - 6.2 - - 10 - - - -
21/06:30am 4.7 NE 3 4 1017.4 - 6.2 - - 10 - - - -
21/06:00am 5.1 NE 4 5 1017.3 - 6.2 - - 10 - - - -
21/05:30am 5.3 NNE 5 6 1017.2 - 6.2 - - 10 - - - -
21/05:00am 5.5 NNE 5 6 1017.1 - 6.2 - Partly cloudy 10 - - - -
21/04:30am 5.3 NNE 4 5 1017.0 - 6.2 - Partly cloudy 10 - - - -
21/04:00am 5.8 NNE 4 5 1016.7 - 6.2 - Partly cloudy 10 - - - -
21/03:30am 6.1 NNE 5 6 1016.8 - 6.2 - Cloudy 10 - - - -
21/03:00am 6.0 N 5 6 1016.9 - 6.2 - Mostly cloudy 10 - - - -
21/02:30am 5.7 ENE 4 6 1016.9 - 6.2 - Partly cloudy 10 - - - -
21/02:00am 6.1 NE 4 5 1017.1 - 6.2 - Partly cloudy 10 - - - -
21/01:30am 6.2 NNE 5 6 1016.9 - 6.2 - Partly cloudy 10 - - - -
21/01:00am 6.3 NNE 5 6 1016.8 - 6.2 - Partly cloudy 10 - - - -
21/12:30am 6.9 NNE 5 7 1016.8 - 6.2 - Cloudy 10 - - - -
21/12:00am 6.8 NE 4 5 1016.6 - 6.2 - Cloudy 10 - - - -
 
Date/Time
EST
Temp

°C
Wind Pressure Rain
since 9am
mm
Weather Cloud Vis
km
Sea
Height
m
Swell
Dir
 
Speed
knots
Gust
knots
hPa Trend Height
m
Period
s
Dir
20/11:30pm 6.8 NE 4 5 1016.4 - 6.2 - Partly cloudy 10 - - - -
20/11:00pm 6.2 SE 3 4 1016.5 - 6.2 - Partly cloudy 10 - - - -
20/10:30pm 6.9 SE 3 4 1016.5 - 6.2 - Partly cloudy 10 - - - -
20/10:00pm 7.2 SSW 5 6 1016.3 - 6.2 - Cloudy 10 - - - -
20/09:30pm 7.4 SSW 5 6 1016.1 - 6.2 - Partly cloudy 10 - - - -
20/09:00pm 7.8 SSW 6 7 1015.8 - 6.2 - Cloudy 10 - - - -
20/08:30pm 8.0 SW 6 8 1015.5 - 6.2 - Partly cloudy 10 - - - -
20/08:00pm 7.7 SW 7 8 1015.4 - 6.2 - Partly cloudy 10 - - - -
20/07:30pm 7.6 SSW 7 8 1015.1 - 6.2 - - 10 - - - -
20/07:00pm 8.8 SW 8 10 1014.8 - 6.2 - Partly cloudy 10 - - - -
20/06:30pm 8.7 SW 7 10 1014.5 - 6.2 - Partly cloudy 10 - - - -
20/06:00pm 9.6 SSW 6 8 1014.2 - 6.2 - Cloudy 10 - - - -
20/05:30pm 10.7 SSW 9 11 1013.8 - 6.2 - Cloudy 10 - - - -
20/05:00pm 11.6 SW 10 15 1013.4 - 6.2 - Partly cloudy 10 - - - -
20/04:30pm 12.0 SW 12 17 1013.0 - 6.2 - Partly cloudy 10 - - - -
20/04:00pm 12.1 SW 12 17 1012.7 - 6.2 - Partly cloudy 10 - - - -
20/03:30pm 12.5 WSW 12 17 1012.2 - 6.2 - Partly cloudy 10 - - - -
20/03:00pm 12.1 WSW 15 19 1011.7 - 6.2 - Cloudy 9 - - - -
20/02:30pm 12.7 WSW 13 18 1011.1 - 6.2 - Cloudy 10 - - - -
20/02:26pm 12.8 WSW 11 16 1011.0 - 6.2 - Cloudy 10 - - - -
20/02:08pm 12.1 WSW 16 23 1010.9 - 6.2 - Partly cloudy 5 - - - -
20/02:00pm 12.5 WSW 14 22 1010.7 - 6.2 - Partly cloudy 7 - - - -
20/01:51pm 12.9 W 13 18 1010.6 - 6.2 - Partly cloudy 9 - - - -
20/01:30pm 11.8 W 17 30 1010.5 - 6.0 - Partly cloudy 2 - - - -
20/01:28pm 11.9 W 17 30 1010.6 - 5.4 - Partly cloudy 3 - - - -
20/01:23pm 12.3 W 21 30 1010.5 - 3.8 - Partly cloudy 5 - - - -
20/01:21pm 12.8 WNW 19 30 1010.5 - 3.6 - Partly cloudy 4 - - - -
20/01:13pm 13.5 WNW 16 23 1010.1 - 3.2 - Partly cloudy 4 - - - -
20/01:00pm 14.5 NW 17 22 1010.0 - 2.6 - Partly cloudy 10 - - - -
20/12:30pm 14.8 NW 19 26 1010.3 - 2.6 - Partly cloudy 10 - - - -
20/12:09pm 14.1 NW 18 29 1010.6 - 2.4 - Partly cloudy 10 - - - -
20/12:00pm 14.3 NW 17 24 1010.7 - 2.4 - Cloudy 10 - - - -
20/11:52am 14.4 NW 18 23 1010.8 - 2.4 - Partly cloudy 10 - - - -
20/11:38am 13.4 NNW 14 20 1010.9 - 2.4 - Partly cloudy 2 - - - -
20/11:30am 13.3 NNW 13 20 1011.0 - 2.2 - Partly cloudy 3 - - - -
20/11:28am 13.6 NNW 13 18 1010.9 - 1.2 - Partly cloudy 5 - - - -
20/11:00am 13.3 NNW 15 21 1011.3 - 1.0 - Partly cloudy 8 - - - -
20/10:30am 13.3 NW 14 19 1011.4 - 1.0 - Partly cloudy 10 - - - -
20/10:28am 13.2 NW 15 20 1011.4 - 1.0 - Partly cloudy 10 - - - -
20/10:07am 12.4 NW 15 25 1011.6 - 0.4 - Partly cloudy 5 - - - -
20/10:02am 12.5 NW 13 20 1011.6 - 0.2 - Partly cloudy 5 - - - -
20/10:00am 12.5 NW 12 17 1011.6 - 0.2 - Partly cloudy 6 - - - -
20/09:46am 11.7 N 9 13 1011.6 - 0.0 - Partly cloudy 10 - - - -
20/09:30am 11.1 N 6 10 1011.8 - 0.0 - Partly cloudy 10 - - - -
20/09:00am 11.1 N 8 12 1012.0 - 2.2 - Cloudy 10 - - - -
20/08:40am 10.8 N 10 14 1012.0 - 1.8 - Partly cloudy 10 - - - -
20/08:30am 10.5 N 10 16 1012.0 - 1.8 - Partly cloudy 5 - - - -
20/08:25am 10.2 N 10 14 1012.1 - 1.8 - Partly cloudy 5 - - - -
20/08:00am 9.7 N 8 11 1011.9 - 1.4 - Partly cloudy 10 - - - -
20/07:30am 9.1 NNE 8 13 1011.9 - 1.4 - Partly cloudy 10 - - - -
20/07:00am 8.8 NNE 8 12 1011.8 - 1.4 - Partly cloudy 10 - - - -
20/06:30am 8.6 NNE 9 12 1011.6 - 1.4 - Partly cloudy 10 - - - -
20/06:00am 8.6 NNE 9 13 1011.6 - 1.4 - Cloudy 10 - - - -
20/05:30am 8.1 N 9 12 1011.8 - 1.4 - Partly cloudy 10 - - - -
20/05:00am 8.2 NNE 8 12 1012.0 - 1.0 - Partly cloudy 10 - - - -
20/04:30am 7.8 N 7 10 1012.0 - 1.0 - Partly cloudy 10 - - - -
20/04:00am 7.8 NNE 6 9 1012.2 - 0.8 - Partly cloudy 10 - - - -
20/03:30am 7.8 N 6 8 1012.2 - 0.8 - Partly cloudy 10 - - - -
20/03:00am 7.8 NNE 8 10 1012.5 - 0.8 - Cloudy 10 - - - -
20/02:45am 8.0 N 6 9 1012.8 - 0.8 - Partly cloudy 10 - - - -
20/02:30am 8.1 NNE 7 10 1013.0 - 0.8 - Partly cloudy 4 - - - -
20/02:23am 8.0 N 7 10 1013.2 - 0.8 - Partly cloudy 5 - - - -
20/02:00am 7.7 NNE 7 10 1013.2 - 0.8 - Partly cloudy 10 - - - -
20/01:30am 7.6 NNE 7 10 1013.6 - 0.8 - Partly cloudy 10 - - - -
20/01:00am 7.6 NNE 9 11 1013.9 - 0.8 - Partly cloudy 10 - - - -
20/12:30am 7.4 NNE 6 9 1014.2 - 0.8 - Partly cloudy 10 - - - -
20/12:00am 7.6 NNE 6 9 1014.4 - 0.8 - Cloudy 10 - - - -
 
Date/Time
EST
Temp

°C
Wind Pressure Rain
since 9am
mm
Weather Cloud Vis
km
Sea
Height
m
Swell
Dir
 
Speed
knots
Gust
knots
hPa Trend Height
m
Period
s
Dir
19/11:30pm 7.7 NNE 6 9 1014.7 - 0.8 - Partly cloudy 10 - - - -
19/11:27pm 7.8 NE 6 9 1014.7 - 0.8 - Partly cloudy 10 - - - -
19/11:00pm 8.2 N 5 7 1015.3 - 0.6 - Partly cloudy 2 - - - -
19/10:30pm 8.2 NNW 4 7 1015.6 - 0.0 - Partly cloudy 5 - - - -
19/10:28pm 8.2 NNW 5 8 1015.6 - 0.0 - Partly cloudy 5 - - - -
19/10:00pm 8.3 NNE 6 9 1015.7 - 0.0 - Partly cloudy 7 - - - -
19/09:30pm 8.0 NNE 5 9 1015.9 - 0.0 - Partly cloudy 10 - - - -
19/09:00pm 8.4 NNE 5 7 1016.2 - 0.0 - Mostly cloudy 10 - - - -
19/08:30pm 8.8 NNE 6 7 1016.2 - 0.0 - Partly cloudy 10 - - - -
19/08:00pm 9.3 NNE 5 7 1016.3 - 0.0 - Partly cloudy 10 - - - -
19/07:30pm 9.7 WSW 4 6 1016.4 - 0.0 - Partly cloudy 10 - - - -
19/07:00pm 9.8 CALM 0 0 1016.5 - 0.0 - Partly cloudy 10 - - - -
19/06:30pm 10.1 WSW 2 4 1016.3 - 0.0 - Cloudy 10 - - - -
19/06:00pm 10.3 W 4 6 1016.2 - 0.0 - Mostly cloudy 10 - - - -
19/05:30pm 10.6 WSW 6 9 1016.3 - 0.0 - Cloudy 10 - - - -
19/05:00pm 11.2 W 5 9 1016.3 - 0.0 - Cloudy 10 - - - -
19/04:30pm 11.6 W 5 6 1016.4 - 0.0 - Partly cloudy 10 - - - -
19/04:00pm 12.9 W 6 8 1016.6 - 0.0 - - 10 - - - -
19/03:30pm 13.3 WSW 8 13 1016.7 - 0.0 - Partly cloudy 10 - - - -
19/03:00pm 13.5 WSW 9 12 1016.7 - 0.0 - Mostly clear 10 - - - -
19/02:30pm 13.4 WSW 9 13 1016.8 - 0.0 - Partly cloudy 10 - - - -
19/02:00pm 12.8 SSW 11 14 1016.9 - 0.0 - Cloudy 10 - - - -
19/01:30pm 13.3 WSW 12 15 1017.2 - 0.0 - Partly cloudy 10 - - - -
19/01:00pm 12.3 WSW 10 11 1017.3 - 0.0 - Partly cloudy 10 - - - -
19/12:30pm 11.3 ESE 4 5 1017.7 - 0.0 - Partly cloudy 10 - - - -
19/12:00pm 11.2 SSE 5 7 1018.1 - 0.0 - Cloudy 10 - - - -
19/11:30am 11.0 SE 6 9 1018.5 - 0.0 - Partly cloudy 10 - - - -
19/11:00am 10.7 ESE 5 6 1018.6 - 0.0 - Partly cloudy 9 - - - -
19/10:30am 10.3 NE 4 5 1018.4 - 0.0 - Partly cloudy 10 - - - -
19/10:00am 9.9 E 7 9 1018.4 - 0.0 - Partly cloudy 10 - - - -
19/09:30am 10.5 NNE 2 4 1018.3 - 0.0 - Cloudy 10 - - - -
19/09:00am 10.3 E 4 7 1018.1 - 2.6 - Cloudy 10 - - - -
19/08:30am 9.7 ESE 9 11 1018.2 - 2.6 - Partly cloudy 10 - - - -
19/08:00am 9.7 W 1 4 1017.7 - 2.6 - Partly cloudy 10 - - - -
19/07:30am 9.5 SE 4 7 1017.6 - 2.6 - Partly cloudy 10 - - - -
19/07:00am 9.7 SSW 9 13 1017.2 - 2.6 - Partly cloudy 10 - - - -
19/06:30am 8.6 SW 7 9 1017.1 - 2.6 - Partly cloudy 10 - - - -
19/06:00am 8.7 SSW 8 10 1017.0 - 2.6 - Mostly cloudy 10 - - - -
19/05:30am 9.2 SSW 6 9 1016.8 - 2.6 - Partly cloudy 10 - - - -
19/05:00am 9.5 SSW 10 13 1016.7 - 2.6 - Partly cloudy 10 - - - -
19/04:30am 8.1 SW 8 10 1016.7 - 2.6 - Partly cloudy 10 - - - -
19/04:00am 8.7 SSW 8 10 1016.6 - 2.6 - Partly cloudy 10 - - - -
19/03:30am 9.5 SW 11 17 1016.6 - 2.6 - Partly cloudy 10 - - - -
19/03:00am 9.3 SSW 9 13 1016.5 - 2.6 - Cloudy 10 - - - -
19/02:30am 9.0 SW 7 11 1016.8 - 2.4 - Partly cloudy 10 - - - -
19/02:00am 8.5 SW 9 11 1016.6 - 2.4 - Partly cloudy 10 - - - -
19/01:34am 9.1 SW 9 11 1016.5 - 2.4 - Partly cloudy 10 - - - -
19/01:30am 9.1 SW 10 15 1016.5 - 2.4 - Partly cloudy 8 - - - -
19/01:18am 9.0 WSW 13 21 1016.8 - 2.4 - Partly cloudy 5 - - - -
19/01:00am 9.2 SW 9 13 1016.7 - 2.0 - Partly cloudy 10 - - - -
19/12:30am 9.8 SW 9 15 1016.6 - 2.0 - Partly cloudy 10 - - - -
19/12:00am 9.7 SW 12 15 1016.6 - 2.0 - Mostly cloudy 10 - - - -
 
Date/Time
EST
Temp

°C
Wind Pressure Rain
since 9am
mm
Weather Cloud Vis
km
Sea
Height
m
Swell
Dir
 
Speed
knots
Gust
knots
hPa Trend Height
m
Period
s
Dir
18/11:30pm 9.4 SW 10 13 1016.6 - 2.0 - Partly cloudy 10 - - - -
18/11:00pm 9.1 WSW 9 16 1016.8 - 2.0 - Partly cloudy 10 - - - -
18/10:30pm 9.8 SW 11 13 1016.9 - 1.8 - Partly cloudy 10 - - - -
18/10:00pm 9.8 SW 11 16 1016.7 - 1.8 - Partly cloudy 10 - - - -
18/09:30pm 9.8 SSW 10 13 1016.7 - 1.8 - Partly cloudy 10 - - - -
18/09:00pm 10.4 SW 11 17 1016.4 - 1.8 - Cloudy 10 - - - -
18/08:30pm 9.8 SW 13 19 1016.3 - 1.8 - Partly cloudy 10 - - - -
18/08:00pm 10.4 SW 13 19 1015.9 - 1.8 - Partly cloudy 10 - - - -
18/07:30pm 11.1 SW 13 19 1015.7 - 1.8 - Partly cloudy 10 - - - -
18/07:00pm 10.5 SW 11 15 1015.5 - 1.8 - Partly cloudy 10 - - - -
18/06:30pm 10.9 SW 12 18 1015.4 - 1.8 - Partly cloudy 8 - - - -
18/06:00pm 10.8 WSW 12 19 1015.1 - 1.6 - Partly cloudy 10 - - - -
18/05:30pm 10.9 SW 12 19 1014.6 - 1.6 - Partly cloudy 10 - - - -
18/05:00pm 11.9 SW 13 24 1014.3 - 1.6 - Partly cloudy 10 - - - -
18/04:30pm 12.8 WSW 14 20 1013.9 - 1.6 - Partly cloudy 10 - - - -
18/04:00pm 13.0 WSW 15 21 1013.4 - 1.4 - Partly cloudy 10 - - - -
18/03:30pm 13.7 WSW 15 21 1013.2 - 1.4 - Partly cloudy 10 - - - -
18/03:00pm 13.2 WSW 14 19 1013.0 - 1.4 - Mostly clear 10 - - - -

Other Formats:

Comma delimited format used in spreadsheet applications
http://www.bom.gov.au/fwo/IDT60701/IDT60701.94956.axf

JavaScript Object Notation format (JSON) in row-major order
http://www.bom.gov.au/fwo/IDT60701/IDT60701.94956.json